Time;durP1;ratioP1;P1;durP2;ratioP2;P2;SDS_P1;SDS_P2;PMS_P1;PMS_P2;Temp;Humidity;BMP_temperature;BMP_pressure;BME280_temperature;BME280_humidity;BME280_pressure;Samples;Min_cycle;Max_cycle;Signal;HPM_P1;HPM_P2
2023/05/04 00:00:49;;;;;;;7.82;4.40;;;8.60;99.90;;;;;;4352341;28;10000625;-73
2023/05/04 00:03:15;;;;;;;6.25;3.95;;;8.60;99.90;;;;;;5060890;28;20054;-72
2023/05/04 00:05:40;;;;;;;7.93;4.00;;;8.60;99.90;;;;;;5057918;28;20029;-72
2023/05/04 00:08:06;;;;;;;8.57;4.40;;;8.60;99.90;;;;;;5056908;28;20028;-72
2023/05/04 00:10:32;;;;;;;9.35;4.60;;;8.60;99.90;;;;;;5061850;28;20021;-72
2023/05/04 00:12:57;;;;;;;6.32;4.25;;;8.60;99.90;;;;;;5060962;28;20025;-72
2023/05/04 00:15:23;;;;;;;8.77;4.38;;;8.60;99.90;;;;;;5059695;28;20039;-73
2023/05/04 00:17:49;;;;;;;5.68;3.80;;;8.60;99.90;;;;;;5058527;28;20225;-73
2023/05/04 00:20:14;;;;;;;7.07;4.30;;;8.50;99.90;;;;;;5057445;28;20032;-73
2023/05/04 00:22:40;;;;;;;9.68;4.68;;;8.50;99.90;;;;;;5057465;28;20048;-73
2023/05/04 00:25:06;;;;;;;7.18;4.13;;;8.40;99.90;;;;;;5059303;28;20041;-73
2023/05/04 00:27:33;;;;;;;7.68;4.32;;;8.40;99.90;;;;;;5049908;28;20142;-73
2023/05/04 00:29:59;;;;;;;6.47;4.15;;;8.40;99.90;;;;;;5070612;28;20024;-73
2023/05/04 00:32:26;;;;;;;8.10;4.07;;;8.40;99.90;;;;;;5058544;28;20029;-72
2023/05/04 00:34:51;;;;;;;9.70;4.80;;;8.30;99.90;;;;;;5067971;28;20024;-72
2023/05/04 00:37:17;;;;;;;8.10;4.75;;;8.30;99.90;;;;;;5059765;28;20073;-73
2023/05/04 00:39:42;;;;;;;8.43;4.70;;;8.30;99.90;;;;;;5068572;28;20031;-73
2023/05/04 00:42:08;;;;;;;6.68;4.30;;;8.30;99.90;;;;;;5068628;28;20090;-73
2023/05/04 00:44:34;;;;;;;8.48;4.68;;;8.20;99.90;;;;;;5069635;28;20391;-72
2023/05/04 00:47:01;;;;;;;6.93;4.22;;;8.20;99.90;;;;;;5058754;28;20159;-73
2023/05/04 00:49:26;;;;;;;6.85;4.80;;;8.20;99.90;;;;;;5050550;28;20489;-72
2023/05/04 00:51:53;;;;;;;12.32;4.72;;;8.10;99.90;;;;;;5050357;28;20119;-73
2023/05/04 00:54:19;;;;;;;7.50;4.30;;;8.10;99.90;;;;;;5065252;28;20441;-72
2023/05/04 00:56:46;;;;;;;6.07;4.28;;;8.00;99.90;;;;;;5061614;28;20051;-72
2023/05/04 00:59:12;;;;;;;7.50;4.35;;;7.90;99.90;;;;;;5056873;28;20366;-73
2023/05/04 01:01:39;;;;;;;9.02;4.60;;;7.80;99.90;;;;;;5069786;28;20096;-72
2023/05/04 01:04:05;;;;;;;9.95;4.65;;;7.80;99.90;;;;;;5070005;28;20054;-72
2023/05/04 01:06:57;;;;;;;8.40;4.95;;;7.70;99.90;;;;;;5056431;28;20028;-72
2023/05/04 01:09:46;;;;;;;5.70;4.07;;;7.70;99.90;;;;;;5049778;28;20039;-72
2023/05/04 01:12:20;;;;;;;6.68;4.53;;;7.60;99.90;;;;;;5054733;28;20484;-72
2023/05/04 01:14:47;;;;;;;6.93;5.05;;;7.60;99.90;;;;;;5049856;28;20571;-72
2023/05/04 01:17:13;;;;;;;10.05;4.38;;;7.60;99.90;;;;;;5048911;28;20089;-73
2023/05/04 01:19:39;;;;;;;9.13;4.82;;;7.50;99.90;;;;;;5050352;28;20036;-72
2023/05/04 01:22:04;;;;;;;10.07;5.13;;;7.50;99.90;;;;;;5049776;28;20029;-71
2023/05/04 01:24:30;;;;;;;9.07;4.75;;;7.50;99.90;;;;;;5049287;28;20070;-72
2023/05/04 01:27:17;;;;;;;9.25;4.28;;;7.50;99.90;;;;;;5049518;28;20106;-73
2023/05/04 01:30:12;;;;;;;8.23;5.00;;;7.50;99.90;;;;;;5062138;28;20040;-73
2023/05/04 01:32:40;;;;;;;7.85;4.97;;;7.50;99.90;;;;;;5051479;28;20122;-73
2023/05/04 01:35:06;;;;;;;9.93;5.25;;;7.50;99.90;;;;;;5052416;28;20603;-72
2023/05/04 01:37:32;;;;;;;7.43;4.90;;;7.60;99.90;;;;;;5062547;28;20512;-72
2023/05/04 01:39:57;;;;;;;8.15;5.15;;;7.50;99.90;;;;;;5053744;28;20028;-73
2023/05/04 01:42:23;;;;;;;7.82;5.13;;;7.50;99.90;;;;;;5068535;28;20029;-73
2023/05/04 01:44:49;;;;;;;8.23;5.50;;;7.50;99.90;;;;;;5057256;28;20040;-72
2023/05/04 01:47:14;;;;;;;8.27;4.88;;;7.50;99.90;;;;;;5052206;28;20025;-73
2023/05/04 01:49:40;;;;;;;8.88;5.28;;;7.50;99.90;;;;;;5049520;28;20100;-73
2023/05/04 01:52:05;;;;;;;10.52;5.45;;;7.50;99.90;;;;;;5049152;28;20032;-73
2023/05/04 01:54:31;;;;;;;8.25;5.35;;;7.60;99.90;;;;;;5048188;28;20036;-73
2023/05/04 01:56:56;;;;;;;8.75;4.70;;;7.60;99.90;;;;;;5058854;28;20028;-72
2023/05/04 01:59:22;;;;;;;8.77;5.10;;;7.60;99.90;;;;;;5051899;28;20028;-72
2023/05/04 02:01:48;;;;;;;8.07;5.18;;;7.50;99.90;;;;;;5049041;28;20025;-73
2023/05/04 02:04:13;;;;;;;7.35;5.10;;;7.50;99.90;;;;;;5062327;28;20079;-72
2023/05/04 02:06:39;;;;;;;6.95;5.03;;;7.50;99.90;;;;;;5068060;28;20020;-72
2023/05/04 02:09:04;;;;;;;7.97;5.30;;;7.50;99.90;;;;;;5052299;28;20036;-72
2023/05/04 02:11:30;;;;;;;9.90;5.15;;;7.60;99.90;;;;;;5048731;28;20107;-72
2023/05/04 02:13:56;;;;;;;11.48;5.65;;;7.60;99.90;;;;;;5059744;28;20391;-72
2023/05/04 02:16:21;;;;;;;13.00;5.45;;;7.60;99.90;;;;;;5068409;28;20023;-73
2023/05/04 02:18:47;;;;;;;9.80;5.47;;;7.60;99.90;;;;;;5061753;28;20497;-73
2023/05/04 02:21:13;;;;;;;12.10;5.82;;;7.60;99.90;;;;;;5054638;28;20142;-72
2023/05/04 02:23:38;;;;;;;11.98;5.65;;;7.60;99.90;;;;;;5049147;28;20032;-72
2023/05/04 02:26:04;;;;;;;11.20;5.80;;;7.60;99.90;;;;;;5048511;28;20101;-72
2023/05/04 02:28:29;;;;;;;8.98;5.97;;;7.60;99.90;;;;;;5048615;28;20036;-73
2023/05/04 02:30:55;;;;;;;10.35;5.90;;;7.50;99.90;;;;;;5066375;28;20036;-72
2023/05/04 02:33:21;;;;;;;7.53;5.32;;;7.50;99.90;;;;;;5051996;28;20491;-73
2023/05/04 02:35:46;;;;;;;7.55;5.45;;;7.40;99.90;;;;;;5055684;28;20021;-72
2023/05/04 02:38:12;;;;;;;12.80;5.60;;;7.40;99.90;;;;;;5065721;28;20032;-72
2023/05/04 02:40:37;;;;;;;8.18;5.50;;;7.40;99.90;;;;;;5057653;28;20060;-73
2023/05/04 02:43:03;;;;;;;8.65;5.68;;;7.40;99.90;;;;;;5047871;28;20469;-72
2023/05/04 02:45:29;;;;;;;9.75;5.32;;;7.40;99.90;;;;;;5046222;28;20107;-73
2023/05/04 02:47:54;;;;;;;7.93;4.93;;;7.40;99.90;;;;;;5047833;28;20017;-72
2023/05/04 02:50:20;;;;;;;11.15;4.97;;;7.30;99.90;;;;;;5055377;28;20478;-73
2023/05/04 02:52:45;;;;;;;8.13;5.57;;;7.30;99.90;;;;;;5061204;28;20017;-72
2023/05/04 02:55:11;;;;;;;11.20;5.28;;;7.30;99.90;;;;;;5048711;28;20078;-72
2023/05/04 02:57:36;;;;;;;8.40;5.32;;;7.30;99.90;;;;;;5056114;28;20067;-73
2023/05/04 03:00:04;;;;;;;9.52;5.20;;;7.20;99.90;;;;;;5064666;28;20072;-72
2023/05/04 03:02:29;;;;;;;12.32;5.60;;;7.20;99.90;;;;;;5051979;28;20032;-73
2023/05/04 03:04:55;;;;;;;7.63;5.15;;;7.20;99.90;;;;;;5048644;28;20021;-72
2023/05/04 03:07:21;;;;;;;9.68;5.55;;;7.20;99.90;;;;;;5050640;28;20059;-72
2023/05/04 03:09:46;;;;;;;9.73;5.68;;;7.10;99.90;;;;;;5066956;28;20119;-72
2023/05/04 03:12:12;;;;;;;11.52;5.55;;;7.00;99.90;;;;;;5049468;28;20431;-72
2023/05/04 03:14:38;;;;;;;8.13;5.28;;;6.90;99.90;;;;;;5047196;28;20028;-73
2023/05/04 03:17:04;;;;;;;12.25;5.68;;;6.80;99.90;;;;;;5052554;28;20029;-72
2023/05/04 03:19:29;;;;;;;9.63;5.55;;;6.80;99.90;;;;;;5055936;28;20100;-72
2023/05/04 03:21:55;;;;;;;11.60;5.35;;;6.80;99.90;;;;;;5057907;28;20108;-72
2023/05/04 03:24:21;;;;;;;8.35;5.97;;;6.90;99.90;;;;;;5067548;28;20633;-72
2023/05/04 03:26:47;;;;;;;8.75;5.32;;;6.90;99.90;;;;;;5064282;28;20086;-72
2023/05/04 03:29:12;;;;;;;12.93;6.50;;;7.00;99.90;;;;;;5048872;28;20048;-72
2023/05/04 03:31:38;;;;;;;9.18;5.93;;;7.00;99.90;;;;;;5051795;28;20051;-72
2023/05/04 03:34:03;;;;;;;11.55;5.85;;;7.00;99.90;;;;;;5055011;28;20136;-72
2023/05/04 03:36:29;;;;;;;10.98;6.22;;;7.00;99.90;;;;;;5051141;28;20028;-72
2023/05/04 03:38:55;;;;;;;12.48;6.10;;;7.00;99.90;;;;;;5055729;28;20036;-74
2023/05/04 03:41:21;;;;;;;12.02;6.65;;;7.10;99.90;;;;;;5051400;28;20025;-72
2023/05/04 03:43:46;;;;;;;13.40;6.72;;;7.20;99.90;;;;;;5049670;28;20024;-72
2023/05/04 03:46:12;;;;;;;14.32;6.88;;;7.20;99.90;;;;;;5050437;28;20124;-73
2023/05/04 03:48:38;;;;;;;14.25;7.30;;;7.20;99.90;;;;;;5056033;28;20032;-73
2023/05/04 03:51:05;;;;;;;13.25;6.93;;;7.20;99.90;;;;;;5057527;28;20029;-73
2023/05/04 03:53:33;;;;;;;12.27;7.47;;;7.20;99.90;;;;;;5066640;28;20024;-73
2023/05/04 03:55:59;;;;;;;19.30;7.47;;;7.20;99.90;;;;;;5051185;28;20033;-73
2023/05/04 03:58:24;;;;;;;12.43;7.38;;;7.30;99.90;;;;;;5051862;28;20035;-73
2023/05/04 04:00:50;;;;;;;11.10;7.60;;;7.20;99.90;;;;;;5049703;28;20032;-73
2023/05/04 04:03:16;;;;;;;14.73;7.50;;;7.30;99.90;;;;;;5040926;28;20028;-72
2023/05/04 04:05:42;;;;;;;16.75;7.63;;;7.30;99.90;;;;;;5065608;28;20029;-72
2023/05/04 04:08:07;;;;;;;13.40;7.18;;;7.30;99.90;;;;;;5062945;28;20430;-73
2023/05/04 04:10:33;;;;;;;15.35;7.30;;;7.20;99.90;;;;;;5052607;28;20033;-73
2023/05/04 04:12:59;;;;;;;12.88;7.18;;;7.20;99.90;;;;;;5059246;28;20046;-73
2023/05/04 04:15:25;;;;;;;12.40;7.18;;;7.20;99.90;;;;;;5059698;28;20029;-73
2023/05/04 04:17:51;;;;;;;11.20;6.72;;;7.20;99.90;;;;;;5054461;28;20425;-72
2023/05/04 04:20:16;;;;;;;12.40;6.90;;;7.20;99.90;;;;;;5063109;28;20082;-73
2023/05/04 04:22:42;;;;;;;12.23;7.53;;;7.20;99.90;;;;;;5060431;28;20557;-72
2023/05/04 04:25:09;;;;;;;12.15;7.47;;;7.20;99.90;;;;;;5065276;28;20110;-73
2023/05/04 04:27:35;;;;;;;9.93;6.32;;;7.20;99.90;;;;;;5063764;28;20155;-72
2023/05/04 04:30:02;;;;;;;12.40;7.20;;;7.20;99.90;;;;;;5058523;28;20032;-72
2023/05/04 04:32:28;;;;;;;12.23;7.55;;;7.20;99.90;;;;;;5060645;28;20067;-73
2023/05/04 04:34:54;;;;;;;12.77;7.30;;;7.30;99.90;;;;;;5058386;28;20060;-72
2023/05/04 04:37:20;;;;;;;10.80;7.25;;;7.30;99.90;;;;;;5055324;28;20131;-72
2023/05/04 04:39:46;;;;;;;11.80;7.72;;;7.30;99.90;;;;;;5059198;28;20029;-74
2023/05/04 04:42:12;;;;;;;17.92;7.40;;;7.30;99.90;;;;;;5050945;28;20385;-72
2023/05/04 04:44:38;;;;;;;10.35;7.40;;;7.40;99.90;;;;;;5054256;28;20481;-72
2023/05/04 04:47:04;;;;;;;14.00;7.97;;;7.40;99.90;;;;;;5050029;28;20040;-73
2023/05/04 04:49:29;;;;;;;11.88;7.60;;;7.40;99.90;;;;;;5051551;28;20087;-73
2023/05/04 04:51:55;;;;;;;11.80;7.65;;;7.50;99.90;;;;;;5064628;28;20032;-73
2023/05/04 04:54:21;;;;;;;13.25;7.38;;;7.50;99.90;;;;;;5051590;28;20429;-73
2023/05/04 04:56:46;;;;;;;13.35;8.00;;;7.60;99.90;;;;;;5056358;28;20336;-73
2023/05/04 04:59:12;;;;;;;13.63;8.38;;;7.60;99.90;;;;;;5050188;28;20036;-72
2023/05/04 05:01:40;;;;;;;12.60;7.63;;;7.70;99.90;;;;;;5048792;28;20036;-71
2023/05/04 05:04:06;;;;;;;16.50;7.70;;;7.80;99.90;;;;;;5048073;28;20103;-74
2023/05/04 05:06:32;;;;;;;14.15;7.95;;;7.80;99.90;;;;;;5053169;28;20059;-73
2023/05/04 05:08:58;;;;;;;13.38;7.65;;;7.80;99.90;;;;;;5053298;28;20025;-72
2023/05/04 05:11:24;;;;;;;12.60;7.85;;;7.80;99.90;;;;;;5057329;28;20036;-72
2023/05/04 05:13:49;;;;;;;16.45;8.32;;;7.90;99.90;;;;;;5061092;28;20041;-72
2023/05/04 05:16:15;;;;;;;12.50;7.47;;;8.00;99.90;;;;;;5051850;28;20033;-71
2023/05/04 05:18:41;;;;;;;14.80;7.95;;;8.00;99.90;;;;;;5047044;28;20119;-72
2023/05/04 05:21:08;;;;;;;14.07;8.70;;;8.10;99.90;;;;;;5054505;28;20547;-71
2023/05/04 05:23:34;;;;;;;12.45;7.97;;;8.10;99.90;;;;;;5048945;28;20070;-72
2023/05/04 05:26:00;;;;;;;12.18;8.20;;;8.20;99.90;;;;;;5046598;28;20543;-72
2023/05/04 05:28:26;;;;;;;12.80;8.18;;;8.20;99.90;;;;;;5047778;28;20033;-72
2023/05/04 05:30:52;;;;;;;14.48;8.73;;;8.30;99.90;;;;;;5060033;28;20020;-72
2023/05/04 05:33:17;;;;;;;13.65;8.70;;;8.30;99.90;;;;;;5048065;28;20535;-74
2023/05/04 05:35:43;;;;;;;15.75;8.38;;;8.40;99.90;;;;;;5050117;28;20029;-71
2023/05/04 05:38:09;;;;;;;11.65;8.13;;;8.40;99.90;;;;;;5047857;28;20513;-71
2023/05/04 05:40:35;;;;;;;15.23;8.65;;;8.50;99.90;;;;;;5052994;28;20032;-71
2023/05/04 05:43:03;;;;;;;15.30;7.45;;;8.60;99.90;;;;;;5054742;28;20560;-72
2023/05/04 05:45:28;;;;;;;14.00;8.20;;;8.60;99.90;;;;;;5047138;28;20033;-72
2023/05/04 05:47:54;;;;;;;15.18;7.85;;;8.70;99.90;;;;;;5050337;28;20499;-71
2023/05/04 05:50:19;;;;;;;13.45;7.68;;;8.90;99.90;;;;;;5051016;28;20021;-71
2023/05/04 05:52:45;;;;;;;12.93;7.10;;;8.90;99.90;;;;;;5046113;28;20044;-72
2023/05/04 05:55:11;;;;;;;11.13;7.30;;;9.10;99.90;;;;;;5059957;28;20396;-71
2023/05/04 05:57:36;;;;;;;12.88;7.13;;;9.20;99.90;;;;;;5049950;28;20573;-71
2023/05/04 06:00:04;;;;;;;12.00;6.50;;;9.30;99.90;;;;;;5050346;28;20052;-72
2023/05/04 06:02:30;;;;;;;10.57;7.00;;;9.40;99.90;;;;;;5049417;28;20204;-71
2023/05/04 06:04:55;;;;;;;9.65;6.95;;;9.60;99.90;;;;;;5049813;28;20040;-72
2023/05/04 06:07:22;;;;;;;12.55;7.10;;;9.70;99.90;;;;;;5051447;28;20039;-71
2023/05/04 06:09:48;;;;;;;10.85;6.72;;;9.80;99.90;;;;;;5060324;28;20491;-72
2023/05/04 06:12:15;;;;;;;12.23;7.38;;;9.80;99.90;;;;;;5053129;28;20033;-71
2023/05/04 06:14:42;;;;;;;11.27;7.20;;;9.90;99.90;;;;;;5051715;28;20037;-71
2023/05/04 06:17:08;;;;;;;12.18;7.13;;;9.90;99.90;;;;;;5053905;28;20028;-71
2023/05/04 06:19:37;;;;;;;10.15;7.10;;;10.00;99.90;;;;;;5051438;28;20060;-72
2023/05/04 06:22:03;;;;;;;10.60;6.75;;;10.10;99.90;;;;;;5055942;28;20679;-72
2023/05/04 06:24:29;;;;;;;9.23;6.38;;;10.20;99.90;;;;;;5051815;28;20036;-72
2023/05/04 06:26:55;;;;;;;16.70;7.28;;;10.30;99.90;;;;;;5051996;28;20033;-72
2023/05/04 06:29:21;;;;;;;12.23;6.38;;;10.30;99.90;;;;;;5054182;28;20622;-72
2023/05/04 06:31:47;;;;;;;13.30;6.55;;;10.50;99.90;;;;;;5059238;28;20697;-72
2023/05/04 06:34:15;;;;;;;11.68;6.05;;;10.60;99.90;;;;;;5053015;28;20047;-72
2023/05/04 06:36:42;;;;;;;13.93;6.18;;;10.70;99.90;;;;;;5055020;28;20029;-72
2023/05/04 06:39:07;;;;;;;11.18;5.50;;;10.70;99.90;;;;;;5046112;28;20051;-71
2023/05/04 06:41:33;;;;;;;10.10;5.07;;;10.80;99.90;;;;;;5049468;28;20504;-72
2023/05/04 06:43:59;;;;;;;10.35;5.35;;;10.90;99.90;;;;;;5054138;28;21441;-72
2023/05/04 06:46:25;;;;;;;9.52;5.70;;;;;;;;;;5045754;28;20047;-72
2023/05/04 06:48:52;;;;;;;8.15;4.93;;;11.10;99.90;;;;;;5052340;28;20044;-72
2023/05/04 06:51:19;;;;;;;7.80;5.00;;;11.20;99.90;;;;;;5049701;28;20029;-72
2023/05/04 06:53:45;;;;;;;10.75;5.80;;;11.30;99.90;;;;;;5051113;28;20024;-72
2023/05/04 06:56:11;;;;;;;10.07;5.20;;;11.40;99.90;;;;;;5056342;28;20078;-71
2023/05/04 06:58:37;;;;;;;8.40;5.57;;;11.50;99.90;;;;;;5045687;28;20489;-72
2023/05/04 07:01:02;;;;;;;11.18;5.30;;;11.60;99.90;;;;;;5048561;28;20025;-72
2023/05/04 07:03:28;;;;;;;9.65;5.20;;;11.70;99.90;;;;;;5044891;28;20039;-72
2023/05/04 07:05:54;;;;;;;14.70;5.75;;;11.80;99.90;;;;;;5049485;28;20036;-72
2023/05/04 07:08:19;;;;;;;8.25;6.00;;;11.80;99.90;;;;;;5052741;28;20031;-72
2023/05/04 07:10:45;;;;;;;11.07;5.88;;;12.00;99.90;;;;;;5051457;28;20039;-71
2023/05/04 07:13:12;;;;;;;10.23;6.88;;;12.20;99.90;;;;;;5053626;28;20099;-72
2023/05/04 07:15:38;;;;;;;10.88;6.43;;;12.30;99.90;;;;;;5050076;28;20032;-71
2023/05/04 07:18:03;;;;;;;9.77;6.10;;;12.50;99.90;;;;;;5057739;28;20079;-72
2023/05/04 07:20:29;;;;;;;8.10;6.28;;;12.60;99.90;;;;;;5059350;28;20475;-72
2023/05/04 07:22:55;;;;;;;10.40;6.43;;;12.70;99.90;;;;;;5044720;28;20029;-72
2023/05/04 07:25:22;;;;;;;8.40;6.07;;;;;;;;;;5057088;28;20036;-72
2023/05/04 07:27:48;;;;;;;9.35;7.15;;;;;;;;;;5048913;28;20037;-72
2023/05/04 07:30:14;;;;;;;8.93;5.53;;;13.20;99.90;;;;;;5050616;28;20040;-72
2023/05/04 07:32:40;;;;;;;7.03;5.35;;;;;;;;;;5047101;28;20017;-72
2023/05/04 07:35:06;;;;;;;13.38;6.47;;;;;;;;;;5055946;28;20037;-71
2023/05/04 07:37:32;;;;;;;11.07;5.88;;;;;;;;;;5049588;28;20435;-71
2023/05/04 07:39:59;;;;;;;8.85;5.95;;;;;;;;;;5051418;28;20029;-72
2023/05/04 07:42:26;;;;;;;10.43;5.80;;;;;;;;;;5070995;28;20681;-72
2023/05/04 07:44:52;;;;;;;10.88;5.93;;;14.00;99.90;;;;;;5051140;28;20047;-72
2023/05/04 07:47:18;;;;;;;10.25;5.60;;;14.00;99.90;;;;;;5051196;28;20037;-72
2023/05/04 07:49:44;;;;;;;9.88;5.70;;;14.20;99.90;;;;;;5049100;28;20032;-71
2023/05/04 07:52:09;;;;;;;8.02;5.57;;;14.30;99.90;;;;;;5051760;28;20024;-72
2023/05/04 07:54:35;;;;;;;7.47;5.30;;;14.40;99.90;;;;;;5053917;28;20024;-71
2023/05/04 07:57:05;;;;;;;7.20;4.80;;;14.60;99.90;;;;;;5070617;28;20111;-72
2023/05/04 07:59:31;;;;;;;10.48;4.72;;;14.80;99.90;;;;;;5055741;28;20839;-71
2023/05/04 08:01:56;;;;;;;9.43;5.13;;;15.00;99.90;;;;;;5060185;28;20032;-72
2023/05/04 08:04:22;;;;;;;10.73;4.82;;;15.10;99.90;;;;;;5055214;28;20025;-71
2023/05/04 08:06:48;;;;;;;9.75;4.35;;;15.20;99.90;;;;;;5050862;28;20021;-72
2023/05/04 08:09:14;;;;;;;8.43;4.72;;;15.40;99.90;;;;;;5052931;28;20059;-71
2023/05/04 08:11:40;;;;;;;7.00;4.45;;;15.60;99.90;;;;;;5047673;28;20033;-72
2023/05/04 08:14:07;;;;;;;8.02;5.00;;;15.60;99.90;;;;;;5060816;28;20361;-71
2023/05/04 08:16:32;;;;;;;7.70;4.32;;;15.70;99.90;;;;;;5065612;28;20113;-71
2023/05/04 08:19:00;;;;;;;6.20;4.22;;;15.80;99.90;;;;;;5059525;28;20075;-71
2023/05/04 08:21:26;;;;;;;9.38;4.32;;;15.90;99.90;;;;;;5050174;28;20409;-71
2023/05/04 08:23:51;;;;;;;7.63;4.50;;;16.00;99.90;;;;;;5057371;28;20037;-71
2023/05/04 08:26:18;;;;;;;6.97;4.30;;;16.00;99.90;;;;;;5058839;28;20041;-72
2023/05/04 08:28:45;;;;;;;8.85;4.70;;;16.10;99.90;;;;;;5048235;28;20043;-71
2023/05/04 08:31:13;;;;;;;10.95;4.07;;;15.90;99.90;;;;;;5053486;28;20028;-71
2023/05/04 08:33:39;;;;;;;6.00;4.07;;;16.00;99.90;;;;;;5054785;28;20029;-71
2023/05/04 08:36:06;;;;;;;8.98;4.35;;;16.10;99.90;;;;;;5055428;28;20080;-72
2023/05/04 08:38:32;;;;;;;9.38;4.43;;;16.10;99.90;;;;;;5054175;28;20540;-71
2023/05/04 08:41:02;;;;;;;8.32;4.38;;;16.30;99.90;;;;;;5060219;28;20315;-72
2023/05/04 08:43:28;;;;;;;8.93;4.65;;;16.50;99.90;;;;;;5062891;28;20036;-72
2023/05/04 08:45:54;;;;;;;9.15;4.25;;;16.50;99.90;;;;;;5064847;28;20130;-72
2023/05/04 08:48:21;;;;;;;7.07;4.20;;;16.60;99.90;;;;;;5058833;28;20104;-72
2023/05/04 08:50:47;;;;;;;5.95;4.10;;;16.80;99.90;;;;;;5056033;28;20029;-72
2023/05/04 08:53:15;;;;;;;5.20;3.60;;;16.90;99.90;;;;;;5058605;28;20082;-72
2023/05/04 08:55:42;;;;;;;6.47;4.32;;;17.10;99.70;;;;;;5069109;28;20435;-72
2023/05/04 08:58:13;;;;;;;7.65;4.32;;;17.20;98.20;;;;;;5059219;28;20036;-72
2023/05/04 09:00:39;;;;;;;7.82;4.65;;;17.30;98.40;;;;;;5063428;28;20199;-72
2023/05/04 09:03:08;;;;;;;6.90;4.18;;;17.30;98.20;;;;;;5056153;28;20527;-72
2023/05/04 09:05:34;;;;;;;9.20;3.92;;;17.20;98.90;;;;;;5053348;28;20047;-72
2023/05/04 09:08:00;;;;;;;7.90;4.30;;;17.40;98.00;;;;;;5057019;28;20032;-72
2023/05/04 09:10:26;;;;;;;6.97;4.00;;;17.30;97.70;;;;;;5060547;28;20054;-71
2023/05/04 09:12:57;;;;;;;8.68;4.28;;;17.40;97.90;;;;;;5052444;28;20060;-72
2023/05/04 09:15:23;;;;;;;7.70;3.95;;;17.50;98.40;;;;;;5059704;28;20028;-72
2023/05/04 09:18:06;;;;;;;10.43;3.90;;;17.60;99.10;;;;;;5061694;28;20047;-72
2023/05/04 09:20:48;;;;;;;7.18;3.88;;;17.80;97.30;;;;;;5067787;28;20500;-71
2023/05/04 09:23:16;;;;;;;9.77;4.10;;;17.90;96.30;;;;;;5053176;28;20432;-71
2023/05/04 09:25:49;;;;;;;9.45;4.18;;;18.00;97.40;;;;;;5057011;28;20556;-71
2023/05/04 09:28:16;;;;;;;9.10;4.20;;;18.00;95.60;;;;;;5052502;28;20479;-72
2023/05/04 09:30:42;;;;;;;7.00;3.80;;;18.10;94.80;;;;;;5054018;28;20035;-72
2023/05/04 09:33:09;;;;;;;8.45;3.70;;;18.20;95.00;;;;;;5048412;28;20036;-71
2023/05/04 09:35:41;;;;;;;6.47;3.25;;;18.30;95.10;;;;;;5064661;28;20021;-71
2023/05/04 09:38:08;;;;;;;5.60;3.60;;;18.50;95.60;;;;;;5061030;28;20025;-71
2023/05/04 09:40:37;;;;;;;7.13;3.53;;;18.60;94.60;;;;;;5053182;28;20320;-71
2023/05/04 09:43:03;;;;;;;8.32;3.58;;;18.70;94.00;;;;;;5060595;28;20044;-71
2023/05/04 09:45:45;;;;;;;7.43;3.53;;;18.80;94.20;;;;;;5048034;28;20020;-72
2023/05/04 09:48:24;;;;;;;6.35;3.50;;;18.70;91.40;;;;;;5057632;28;20025;-71
2023/05/04 09:50:54;;;;;;;4.88;3.83;;;18.60;92.00;;;;;;5055714;28;20020;-71
2023/05/04 09:53:23;;;;;;;7.97;3.72;;;18.60;93.10;;;;;;5051978;28;20082;-71
2023/05/04 09:55:57;;;;;;;7.90;3.63;;;18.70;94.10;;;;;;5047278;28;20028;-72
2023/05/04 09:58:24;;;;;;;5.82;3.17;;;18.80;94.30;;;;;;5049622;28;20031;-72
2023/05/04 10:00:51;;;;;;;8.00;3.90;;;19.00;93.10;;;;;;5047029;28;20060;-72
2023/05/04 10:03:17;;;;;;;7.18;3.20;;;19.10;91.70;;;;;;5055241;28;20056;-71
2023/05/04 10:05:44;;;;;;;5.82;3.50;;;19.20;92.10;;;;;;5048776;28;20036;-72
2023/05/04 10:08:11;;;;;;;8.25;3.90;;;19.20;92.10;;;;;;5048642;28;20056;-72
2023/05/04 10:10:38;;;;;;;7.00;3.28;;;19.10;91.80;;;;;;5047903;28;20048;-72
2023/05/04 10:13:03;;;;;;;7.32;3.65;;;18.80;91.60;;;;;;5056592;28;20103;-72
2023/05/04 10:15:30;;;;;;;6.63;3.88;;;18.60;92.10;;;;;;5048783;28;20146;-72
2023/05/04 10:18:06;;;;;;;8.48;3.75;;;18.50;92.20;;;;;;5061274;28;20682;-72
2023/05/04 10:21:03;;;;;;;6.68;3.47;;;18.40;92.90;;;;;;5048711;28;20040;-72
2023/05/04 10:23:31;;;;;;;8.82;3.80;;;18.60;92.10;;;;;;5042397;28;20151;-72
2023/05/04 10:26:21;;;;;;;5.57;3.35;;;18.90;91.50;;;;;;5051465;28;20129;-73
2023/05/04 10:28:52;;;;;;;5.18;2.92;;;19.00;91.20;;;;;;5049381;28;20511;-72
2023/05/04 10:31:18;;;;;;;6.10;2.85;;;19.30;90.40;;;;;;5050480;28;20107;-72
2023/05/04 10:33:44;;;;;;;7.22;2.90;;;19.60;90.30;;;;;;5050194;28;20025;-72
2023/05/04 10:36:11;;;;;;;3.90;2.90;;;19.80;89.70;;;;;;5050178;28;20021;-72
2023/05/04 10:38:38;;;;;;;6.95;3.33;;;19.90;83.10;;;;;;5047868;28;20029;-72
2023/05/04 10:41:17;;;;;;;5.22;3.50;;;20.00;84.60;;;;;;5048504;28;20035;-71
2023/05/04 10:43:52;;;;;;;4.88;2.85;;;20.00;86.40;;;;;;5060264;28;20119;-72
2023/05/04 10:46:20;;;;;;;6.00;2.95;;;20.10;84.50;;;;;;5048861;28;20443;-72
2023/05/04 10:48:46;;;;;;;3.63;2.72;;;20.40;84.80;;;;;;5059356;28;20068;-72
2023/05/04 10:51:24;;;;;;;5.45;2.80;;;20.70;84.30;;;;;;5049461;28;20493;-72
2023/05/04 10:53:50;;;;;;;5.65;3.00;;;20.90;85.20;;;;;;5052964;28;20100;-72
2023/05/04 10:56:24;;;;;;;5.00;2.90;;;20.90;81.80;;;;;;5047608;28;20025;-72
2023/05/04 10:58:49;;;;;;;;;;;20.90;77.00;;;;;;5053801;28;20437;-72
2023/05/04 11:01:15;;;;;;;7.07;3.05;;;20.80;82.40;;;;;;5048047;28;20043;-72
2023/05/04 11:03:41;;;;;;;6.85;2.92;;;20.70;74.00;;;;;;5049666;28;20112;-72
2023/05/04 11:06:23;;;;;;;7.97;3.30;;;20.40;71.80;;;;;;5053634;28;20120;-72
2023/05/04 11:08:59;;;;;;;3.58;2.60;;;20.30;72.50;;;;;;5044689;28;20033;-72
2023/05/04 11:11:25;;;;;;;6.22;3.03;;;20.40;75.90;;;;;;5048196;28;20037;-72
2023/05/04 11:13:51;;;;;;;5.10;2.67;;;20.40;73.80;;;;;;5057193;28;20033;-73
2023/05/04 11:16:23;;;;;;;7.47;3.20;;;20.30;75.60;;;;;;5070207;28;20282;-72
2023/05/04 11:18:49;;;;;;;6.20;2.95;;;20.20;74.50;;;;;;5050933;28;20125;-72
2023/05/04 11:21:25;;;;;;;5.13;2.60;;;20.20;73.90;;;;;;5057882;28;20624;-73
2023/05/04 11:23:58;;;;;;;6.95;3.17;;;20.40;76.30;;;;;;4696584;28;9999984;-73
2023/05/04 11:26:24;;;;;;;3.38;2.40;;;20.70;75.40;;;;;;5047091;28;20059;-74
2023/05/04 11:28:50;;;;;;;6.32;3.28;;;20.80;78.90;;;;;;5050661;28;20028;-73
2023/05/04 11:31:17;;;;;;;4.60;2.78;;;21.00;76.60;;;;;;5052036;28;20032;-73
2023/05/04 11:33:45;;;;;;;3.85;2.80;;;21.00;74.00;;;;;;5053103;28;20025;-72
2023/05/04 11:36:12;;;;;;;5.55;2.70;;;21.00;73.20;;;;;;5048693;28;20493;-73
2023/05/04 11:38:37;;;;;;;7.15;2.95;;;21.00;74.50;;;;;;5057763;28;20032;-72
2023/05/04 11:41:03;;;;;;;6.10;3.10;;;21.20;74.50;;;;;;5056374;28;20118;-73
2023/05/04 11:43:30;;;;;;;7.75;3.25;;;21.30;74.60;;;;;;5049394;28;20151;-73
2023/05/04 11:45:59;;;;;;;8.52;3.28;;;21.30;78.70;;;;;;5052317;28;20552;-72
2023/05/04 11:48:26;;;;;;;6.13;2.97;;;21.50;79.60;;;;;;5058798;28;20116;-72
2023/05/04 11:50:54;;;;;;;5.28;3.03;;;21.70;74.70;;;;;;5052292;28;20029;-73
2023/05/04 11:53:21;;;;;;;5.72;3.10;;;21.70;74.30;;;;;;5059550;28;20066;-75
2023/05/04 11:55:48;;;;;;;5.70;2.92;;;21.70;73.30;;;;;;5050389;28;20040;-74
2023/05/04 11:58:14;;;;;;;5.10;2.70;;;21.80;75.70;;;;;;5043891;28;20055;-74
2023/05/04 12:00:42;;;;;;;4.03;2.65;;;21.90;75.00;;;;;;5053736;28;20488;-74
2023/05/04 12:03:13;;;;;;;4.90;2.85;;;21.90;71.90;;;;;;5056734;28;20040;-73
2023/05/04 12:05:51;;;;;;;5.45;2.90;;;21.90;69.50;;;;;;5054609;28;20480;-73
2023/05/04 12:08:32;;;;;;;4.43;3.03;;;21.70;73.70;;;;;;5053819;28;20097;-72
2023/05/04 12:11:20;;;;;;;4.35;2.65;;;21.80;71.90;;;;;;5052880;28;20503;-73
2023/05/04 12:13:48;;;;;;;5.63;2.70;;;22.00;71.50;;;;;;5053885;28;20028;-72
2023/05/04 12:16:14;;;;;;;7.63;2.67;;;22.00;71.40;;;;;;5057252;28;20119;-73
2023/05/04 12:18:41;;;;;;;4.18;2.80;;;22.10;70.40;;;;;;5052020;28;20462;-72
2023/05/04 12:21:14;;;;;;;7.57;3.20;;;22.10;71.80;;;;;;5059507;28;20619;-72
2023/05/04 12:23:41;;;;;;;4.60;3.10;;;22.40;74.00;;;;;;5045797;28;20025;-71
2023/05/04 12:26:07;;;;;;;4.28;3.10;;;22.60;72.00;;;;;;5052893;28;20049;-72
2023/05/04 12:28:34;;;;;;;6.28;2.92;;;22.60;69.30;;;;;;5050579;28;20045;-73
2023/05/04 12:31:01;;;;;;;6.55;3.50;;;22.60;71.80;;;;;;5050739;28;20519;-72
2023/05/04 12:33:27;;;;;;;5.47;2.78;;;22.70;69.00;;;;;;5050730;28;20740;-73
2023/05/04 12:35:53;;;;;;;4.55;3.00;;;22.80;70.50;;;;;;5047225;28;20032;-72
2023/05/04 12:38:19;;;;;;;6.05;2.75;;;23.00;67.40;;;;;;5053489;28;20032;-74
2023/05/04 12:40:45;;;;;;;4.43;2.63;;;23.20;66.40;;;;;;5053383;28;20621;-73
2023/05/04 12:43:11;;;;;;;9.20;2.70;;;23.20;64.20;;;;;;5059477;28;20041;-72
2023/05/04 12:45:36;;;;;;;9.45;2.90;;;23.20;67.10;;;;;;5047611;28;20033;-72
2023/05/04 12:48:02;;;;;;;5.50;2.70;;;23.20;67.80;;;;;;5058845;28;20384;-73
2023/05/04 12:50:28;;;;;;;5.40;2.63;;;23.30;66.10;;;;;;5049578;28;20033;-72